Date,TemperatureHighF,TemperatureAvgF,TemperatureLowF,DewpointHighF,DewpointAvgF,DewpointLowF,HumidityHigh,HumidityAvg,HumidityLow,PressureMaxIn,PressureMinIn,WindSpeedMaxMPH,WindSpeedAvgMPH,GustSpeedMaxMPH,PrecipitationSumIn
2013-1-1,83.7,71.4,61.0,51.7,46.3,36.1,71,42,22,29.76,29.59,32,12,32,0.00
2013-1-2,86.2,71.1,59.4,59.6,53.2,45.5,99,56,31,29.62,29.28,27,11,27,0.09
2013-1-3,64.4,56.7,44.2,58.9,46.9,37.0,99,72,45,29.80,29.28,34,9,34,0.05
2013-1-4,71.1,59.1,46.6,52.5,43.5,29.4,82,58,23,30.01,29.78,20,8,20,0.00
2013-1-5,74.5,65.2,57.4,58.0,54.0,49.3,82,68,52,30.02,29.93,16,8,16,0.00
2013-1-6,78.8,67.3,59.2,62.1,55.5,49.3,92,68,40,30.00,29.85,21,8,21,0.00
2013-1-7,72.5,60.1,54.0,55.1,50.8,46.0,92,72,48,29.89,29.36,26,7,26,0.00
2013-1-8,71.6,60.6,54.5,54.0,47.2,37.8,86,64,32,29.65,29.36,25,10,25,0.00
2013-1-9,87.6,71.1,58.3,56.6,47.4,39.4,70,44,20,29.63,29.40,29,12,29,0.00
2013-1-10,82.9,75.9,64.2,65.8,44.4,21.7,81,37,11,29.75,29.31,34,14,34,0.00
2013-1-11,82.4,68.9,59.0,59.6,46.4,31.0,81,48,17,30.00,29.75,21,7,21,0.00
2013-1-12,80.8,69.6,58.3,61.3,54.2,17.0,99,62,10,29.98,29.73,14,4,14,0.00
2013-1-13,88.9,74.5,60.3,60.5,56.4,51.6,86,57,29,29.78,29.42,27,9,27,0.00
2013-1-14,67.8,61.7,57.2,55.3,52.1,49.1,84,71,52,29.67,29.57,17,5,20,0.00
2013-1-15,60.8,57.4,55.2,57.0,54.7,51.9,99,91,83,29.81,29.64,12,4,12,0.65
2013-1-16,67.3,59.3,51.4,59.3,52.6,47.9,99,80,54,29.80,29.53,15,6,15,0.01
2013-1-17,60.6,54.6,47.5,57.5,50.3,43.5,95,86,55,29.65,29.41,27,9,27,0.08
2013-1-18,68.9,54.8,42.6,47.4,42.5,33.3,99,68,28,29.81,29.64,28,9,28,0.07
2013-1-19,88.9,66.8,55.6,57.8,51.4,43.2,83,61,29,29.78,29.42,31,10,31,0.00
2013-1-20,70.9,62.5,52.0,58.7,52.7,46.3,93,71,55,29.84,29.65,19,7,19,0.00
2013-1-21,68.4,61.0,53.2,56.1,53.3,51.1,98,77,57,30.20,29.84,21,9,21,0.00
2013-1-22,70.7,64.0,58.6,60.8,57.5,52.2,98,80,67,30.21,30.10,21,9,21,0.00
2013-1-23,90.9,74.0,55.0,69.0,53.4,44.3,99,57,21,30.10,29.98,23,6,23,0.00
2013-1-24,72.7,62.6,57.0,56.5,49.0,42.8,83,62,42,30.58,30.06,26,8,26,0.00
2013-1-25,65.3,60.6,55.0,53.3,50.6,48.3,85,70,60,30.61,30.52,27,12,27,0.00
2013-1-26,68.9,63.3,58.8,57.5,54.1,51.6,90,72,58,30.56,30.50,24,13,24,0.00
2013-1-27,70.7,64.8,59.5,61.2,58.5,54.3,94,81,66,30.61,30.52,21,8,21,0.00
2013-1-28,69.8,63.2,56.1,61.1,58.8,54.8,99,86,70,30.62,30.44,18,6,18,0.00
2013-1-29,71.4,64.5,61.0,61.0,58.8,56.7,95,82,63,30.45,30.30,15,6,15,0.00
2013-1-30,72.3,66.1,61.5,62.3,60.2,57.9,94,82,70,30.33,30.15,18,7,18,0.00
2013-1-31,90.7,71.5,56.7,63.1,54.4,24.0,99,64,10,30.18,30.11,24,7,24,0.00
2013-2-1,72.7,65.3,59.9,64.2,61.2,58.7,98,87,72,30.15,29.90,19,6,19,0.00
2013-2-2,79.3,65.9,59.9,65.3,61.2,59.1,99,86,56,29.93,29.78,21,8,21,0.00
2013-2-3,79.3,66.9,59.7,61.7,57.8,53.0,99,75,44,29.97,29.81,23,10,23,0.00
2013-2-4,68.5,62.3,51.6,65.8,59.5,47.0,97,91,79,29.86,29.48,35,10,35,0.19
2013-2-5,61.3,55.1,49.1,48.0,42.7,35.8,92,64,41,30.26,29.78,34,14,34,0.15
2013-2-6,66.6,57.3,51.4,54.7,48.1,42.8,95,73,49,30.37,30.23,16,6,16,0.04
2013-2-7,66.2,59.1,47.5,56.5,50.3,45.0,96,73,58,30.39,30.31,21,8,21,0.00
2013-2-8,68.0,62.0,58.5,58.6,55.7,53.2,90,80,69,30.38,30.19,25,11,25,0.00
2013-2-9,76.6,64.6,57.0,62.7,58.6,52.9,99,83,51,30.19,30.11,15,5,15,0.00
2013-2-10,72.0,63.6,56.3,63.6,59.6,56.0,99,87,71,30.15,29.93,17,7,17,0.00
2013-2-11,86.9,69.2,59.7,67.9,56.6,48.0,99,68,33,30.01,29.80,25,7,25,0.00
2013-2-12,67.3,62.0,57.7,59.9,56.3,51.8,97,82,70,30.01,29.79,20,7,20,0.00
2013-2-13,68.4,60.2,56.7,59.5,51.8,41.4,99,75,52,30.01,29.75,21,8,21,0.00
2013-2-14,74.7,63.1,46.2,57.0,48.8,28.4,96,63,19,30.00,29.88,19,6,19,0.00
2013-2-15,69.6,62.2,54.1,59.2,54.1,48.0,94,75,58,30.09,29.92,21,9,21,0.00
2013-2-16,78.6,65.8,53.8,59.3,56.7,51.8,97,74,42,30.04,29.94,16,5,16,0.00
2013-2-17,70.3,61.2,55.6,56.8,53.9,50.1,91,78,51,30.33,30.04,15,6,15,0.00
2013-2-18,68.7,61.1,49.5,57.4,53.8,48.1,95,78,60,30.38,30.32,15,5,15,0.00
2013-2-19,70.5,64.4,57.7,61.0,58.5,56.3,97,82,67,30.38,30.22,21,8,21,0.00
2013-2-20,76.1,65.1,57.4,61.4,57.2,53.1,97,77,51,30.24,30.13,21,8,21,0.00
2013-2-21,76.3,61.3,50.9,61.6,53.7,49.4,99,78,43,30.33,30.06,31,8,31,0.00
2013-2-22,68.9,57.9,50.7,51.2,48.7,46.2,90,73,47,30.36,30.29,16,7,16,0.00
2013-2-23,69.4,57.2,45.7,53.7,49.3,44.9,98,77,46,30.47,30.34,15,5,15,0.00
2013-2-24,69.6,59.5,48.4,56.3,51.9,47.3,97,78,48,30.56,30.44,16,6,16,0.00
2013-2-25,67.3,61.3,58.6,56.6,54.6,53.2,87,79,66,30.56,30.44,20,8,20,0.00
2013-2-26,70.5,63.9,58.5,60.6,58.0,55.6,92,81,68,30.46,30.32,17,8,17,0.00
2013-2-27,70.3,63.4,57.4,61.8,58.3,55.7,98,84,64,30.35,30.18,17,6,17,0.00
2013-2-28,72.7,65.6,61.7,62.0,59.7,57.5,95,82,62,30.18,29.88,21,10,21,0.00
2013-3-1,74.8,64.2,58.5,61.0,57.1,51.9,99,79,47,30.03,29.87,24,9,24,0.00
2013-3-2,70.3,62.5,58.8,57.0,55.3,53.5,88,78,60,30.03,29.80,13,5,13,0.00
2013-3-3,68.0,60.3,56.8,57.3,51.1,45.2,92,73,47,29.94,29.77,21,8,21,0.00
2013-3-4,74.7,59.4,53.2,55.5,49.9,44.1,94,72,43,30.03,29.60,28,8,28,0.00
2013-3-5,66.9,59.4,48.0,54.2,50.1,45.1,93,72,57,30.09,29.94,18,7,18,0.00
2013-3-6,86.4,66.1,52.5,57.9,51.6,36.8,98,66,19,30.20,29.82,24,5,24,0.02
2013-3-7,64.8,58.0,52.0,57.0,52.6,48.5,98,83,64,30.21,30.11,24,9,24,0.05
2013-3-8,78.1,64.7,52.7,61.6,56.6,51.0,99,77,41,30.30,30.10,15,5,15,0.00
2013-3-9,66.0,61.2,59.0,57.2,55.7,53.1,90,82,67,30.35,30.21,21,8,21,0.00
2013-3-10,69.1,62.1,58.5,59.3,57.7,55.9,93,86,69,30.29,30.18,14,6,14,0.00
2013-3-11,72.0,62.7,55.0,60.7,53.0,45.0,97,73,39,30.37,30.13,21,6,21,0.00
2013-3-12,62.2,58.2,55.8,52.7,51.1,48.3,83,77,71,30.36,30.15,17,7,17,0.00
2013-3-13,67.6,61.3,57.2,54.9,53.3,51.5,90,75,61,30.15,30.03,16,6,16,0.00
2013-3-14,71.1,63.7,57.0,62.1,58.6,54.5,97,84,68,30.07,29.86,17,7,17,0.00
2013-3-15,80.8,65.1,56.5,63.3,59.1,55.3,99,83,44,30.12,29.89,22,6,22,0.00
2013-3-16,68.4,61.7,58.1,59.0,56.6,54.8,93,84,66,30.13,29.88,17,7,17,0.00
2013-3-17,73.0,62.8,58.5,63.5,59.0,52.5,98,88,49,29.88,29.42,24,5,24,0.07
2013-3-18,59.9,57.3,54.0,59.5,56.6,51.6,99,98,91,29.75,29.43,18,5,18,0.45
2013-3-19,59.4,52.8,48.0,51.6,48.0,41.7,99,85,54,30.23,29.75,19,8,19,0.06
2013-3-20,65.8,54.2,44.2,51.0,46.3,43.1,99,77,45,30.42,30.23,12,4,12,0.00
2013-3-21,64.9,55.8,42.6,53.3,48.3,42.3,99,77,59,30.51,30.42,18,6,18,0.00
2013-3-22,66.9,61.3,56.7,58.0,54.7,50.4,91,79,69,30.51,30.38,17,8,17,0.00
2013-3-23,72.0,62.2,46.9,59.8,53.7,46.1,97,76,45,30.38,30.21,14,4,14,0.00
2013-3-24,75.2,63.0,52.0,59.8,53.3,48.8,95,73,43,30.22,30.14,8,2,8,0.00
2013-3-25,85.1,68.8,54.1,61.6,52.4,45.1,96,61,27,30.14,29.97,17,3,17,0.00
2013-3-26,68.7,62.3,56.1,57.4,54.3,49.6,89,76,53,30.36,30.10,19,7,19,0.00
2013-3-27,71.8,62.5,59.4,58.9,57.1,55.3,92,83,60,30.40,30.31,14,6,14,0.00
2013-3-28,67.5,60.8,57.9,59.3,57.0,55.9,95,87,72,30.38,30.17,14,5,14,0.00
2013-3-29,84.9,66.3,56.8,59.6,54.7,40.1,97,74,21,30.17,29.86,17,5,17,0.00
2013-3-30,78.1,65.0,51.8,60.1,54.1,48.8,93,71,39,29.94,29.85,13,4,13,0.00
2013-3-31,78.4,67.1,59.5,62.3,55.9,46.8,99,71,34,29.85,29.55,23,6,23,0.04
2013-4-1,80.6,67.3,61.2,56.9,49.9,46.6,70,54,39,30.02,29.62,25,10,25,0.00
2013-4-2,63.9,63.9,63.9,46.9,46.9,46.9,54,54,54,30.01,30.01,13,13,22,0.00
2013-4-3,63.9,63.9,63.9,46.9,46.9,46.9,54,54,54,30.01,30.01,13,13,22,0.00
2013-4-4,63.9,63.9,63.9,46.9,46.9,46.9,54,54,54,30.01,30.01,13,13,22,0.00
2013-4-5,63.9,63.9,63.9,46.9,46.9,46.9,54,54,54,30.01,30.01,13,13,22,0.00
2013-4-6,63.9,63.9,63.9,46.9,46.9,46.9,54,54,54,30.01,30.01,13,13,22,0.00
2013-4-7,63.9,59.3,48.2,47.0,46.0,40.7,93,63,54,30.31,30.01,13,9,22,0.19
2013-4-8,68.7,55.1,41.0,52.3,44.8,38.0,99,72,40,30.27,30.09,15,4,15,0.01
2013-4-9,57.7,51.8,45.5,51.5,43.9,38.4,97,75,57,30.41,30.13,28,7,28,0.01
2013-4-10,59.7,50.5,36.5,50.3,42.8,34.9,99,77,51,30.40,30.18,17,6,17,0.00
2013-4-11,75.6,58.4,39.7,55.0,47.3,39.3,99,70,33,30.17,29.91,11,3,11,0.00
2013-4-12,65.3,58.6,54.0,52.5,48.2,45.1,89,69,50,30.37,29.95,13,5,13,0.00
2013-4-13,62.1,57.3,50.9,57.0,53.1,44.6,96,86,72,30.36,30.22,20,8,20,0.00
2013-4-14,63.7,52.8,46.4,57.6,50.5,46.1,99,92,73,30.22,30.01,12,2,12,0.00
2013-4-15,71.8,57.3,44.6,58.7,50.3,43.8,99,79,48,30.01,29.90,11,3,11,0.00
2013-4-16,66.0,55.3,47.3,57.1,52.6,47.0,99,91,67,29.94,29.85,22,8,22,0.07
2013-4-17,55.9,53.8,52.5,55.7,53.2,52.0,99,98,97,29.88,29.65,19,10,19,0.19
2013-4-18,60.6,54.8,48.7,53.1,49.8,46.7,98,84,65,29.98,29.75,19,6,19,0.01
2013-4-19,59.9,52.5,47.3,50.6,48.4,46.0,99,86,69,30.13,29.96,8,3,8,0.00
2013-4-20,74.1,51.3,50.0,51.4,49.6,47.4,99,94,85,30.14,29.71,24,10,24,0.61
2013-4-21,58.3,54.5,52.0,58.0,53.5,49.2,99,97,85,29.89,29.55,28,12,28,0.32
2013-4-22,61.2,53.6,46.8,56.5,52.2,46.5,99,95,77,29.55,29.41,11,4,11,0.01
2013-4-23,69.3,56.4,47.8,55.8,52.2,47.6,99,87,58,29.46,29.39,17,6,17,0.01
2013-4-24,74.1,56.5,43.9,62.6,51.8,43.4,99,86,44,29.42,29.35,14,4,14,0.00
2013-4-25,74.1,58.2,50.4,57.3,50.5,31.4,99,81,23,29.50,29.36,13,4,13,0.00
2013-4-26,61.5,55.1,45.9,55.3,48.8,43.0,99,81,53,29.57,29.33,17,5,17,0.00
2013-4-27,72.9,57.0,47.1,53.5,47.5,38.0,98,73,38,29.61,29.32,18,4,18,0.00
2013-4-28,81.9,62.7,46.8,56.2,47.6,34.6,99,64,19,29.69,29.58,20,4,20,0.00
2013-4-29,71.4,61.4,53.4,59.5,54.1,49.0,99,78,55,29.79,29.57,17,4,17,0.00
2013-4-30,56.1,50.4,42.8,55.9,48.8,42.3,99,94,76,30.13,29.79,18,4,18,3.40
2013-5-1,59.7,49.9,35.4,50.2,44.4,34.8,99,83,60,30.11,29.91,24,7,24,0.01
2013-5-2,57.7,51.6,45.7,50.3,47.5,44.3,99,87,66,29.89,29.62,17,4,17,0.04
2013-5-3,58.8,50.7,46.0,50.3,47.2,45.2,99,88,67,29.99,29.82,20,8,20,0.02
2013-5-4,63.0,57.9,53.2,56.4,53.6,49.4,94,86,74,29.85,29.31,21,8,21,0.00
2013-5-5,70.2,58.3,54.7,58.1,53.9,50.5,97,86,62,29.28,29.07,21,7,21,0.00
2013-5-6,55.4,49.2,45.3,53.9,47.4,41.3,99,94,82,29.83,29.20,35,13,35,0.26
2013-5-7,62.4,47.6,39.2,45.2,42.1,38.6,99,83,46,30.13,29.83,11,4,11,0.01
2013-5-8,60.1,47.8,33.1,48.9,42.3,32.8,99,83,54,30.16,30.10,12,4,12,0.00
2013-5-9,61.2,49.3,38.5,51.2,45.4,38.2,99,87,58,30.10,29.46,12,4,12,0.00
2013-5-10,54.5,48.4,44.2,47.3,40.5,34.7,86,74,53,30.12,29.51,30,12,30,0.02
2013-5-11,58.8,49.3,41.9,42.8,38.1,32.4,87,66,53,30.28,30.12,18,7,18,0.00
2013-5-12,73.9,55.7,42.1,52.9,46.7,39.7,93,74,41,30.29,30.18,10,3,10,0.00
2013-5-13,53.8,51.1,43.5,52.5,49.5,43.0,99,94,87,30.25,30.06,14,4,14,0.00
2013-5-14,60.1,53.1,45.3,53.7,50.3,44.5,99,90,78,30.04,29.79,12,4,12,0.00
2013-5-15,63.1,52.3,41.7,55.2,49.6,41.5,99,91,71,29.95,29.84,12,4,12,0.00
2013-5-16,56.7,53.5,48.2,54.2,51.7,47.9,99,94,84,29.94,29.77,14,6,14,0.00
2013-5-17,63.5,55.0,44.8,54.5,50.5,44.0,99,86,59,29.75,29.56,14,4,14,0.08
2013-5-18,54.9,52.8,51.8,53.4,52.0,51.3,98,97,91,29.55,29.36,20,10,20,0.02
2013-5-19,54.7,52.3,5.7,53.9,51.2,-11.9,99,96,10,29.55,29.35,12,4,12,0.13
2013-5-20,59.5,52.3,45.0,53.5,50.0,44.2,99,92,78,29.64,29.52,10,3,10,0.01
2013-5-21,55.6,54.2,53.2,54.2,53.0,52.0,98,95,89,29.66,29.54,14,8,14,0.25
2013-5-22,60.8,54.3,49.6,54.6,52.3,49.3,99,93,70,29.91,29.38,14,4,14,0.07
2013-5-23,54.3,49.7,44.2,50.8,43.8,38.9,99,81,61,30.34,29.85,30,11,30,0.07
2013-5-24,59.4,49.4,40.3,44.1,39.3,37.2,95,70,46,30.52,30.34,10,6,10,0.01
2013-5-25,66.4,53.6,43.5,48.1,40.3,37.1,81,61,42,30.47,30.00,8,5,8,0.01
2013-5-26,70.5,55.9,42.8,44.2,35.6,21.1,84,49,20,29.99,29.61,30,7,30,0.00
2013-5-27,51.8,46.8,39.6,40.4,36.8,29.5,95,69,54,29.96,29.70,30,6,30,0.04
2013-5-28,45.7,38.3,33.8,38.3,32.1,24.9,99,80,49,30.45,29.96,33,13,33,0.53
2013-5-29,59.0,42.8,35.1,38.4,33.3,27.1,93,72,42,30.75,30.48,24,5,26,0.09
2013-5-30,60.1,44.0,30.0,42.3,35.3,28.1,95,74,37,30.81,30.75,5,2,5,0.00
2013-5-31,69.3,47.5,32.4,43.5,38.1,28.6,94,73,26,30.76,30.60,7,2,7,0.00
2013-6-1,62.2,51.0,37.2,49.9,45.1,36.2,99,82,60,30.59,30.21,14,3,14,0.00
2013-6-2,66.4,61.5,52.9,49.9,44.6,39.2,84,54,42,30.19,29.94,27,12,27,0.00
2013-6-3,63.1,50.8,45.1,50.1,47.3,40.3,99,89,43,30.08,29.93,27,6,27,0.28
2013-6-4,50.7,46.1,41.2,49.2,44.4,38.2,99,94,78,30.36,29.87,34,8,34,0.11
2013-6-5,53.6,43.4,35.1,39.6,35.8,31.7,94,76,50,30.65,30.35,14,5,14,0.00
2013-6-6,57.4,48.5,42.3,46.9,43.2,37.9,93,82,65,30.81,30.67,15,6,15,0.00
2013-6-7,55.6,49.8,44.2,46.8,44.0,41.0,93,81,65,30.81,30.63,20,7,20,0.00
2013-6-8,66.2,54.4,48.0,52.1,45.8,38.0,97,75,39,30.62,30.35,23,6,23,0.00
2013-6-9,58.1,52.2,47.8,52.1,48.8,43.0,99,89,65,30.68,30.39,17,7,17,0.00
2013-6-10,52.5,48.6,41.7,52.0,47.7,41.5,99,97,88,30.69,30.62,14,4,14,0.01
2013-6-11,52.0,49.0,43.2,51.2,48.1,42.6,99,97,89,30.61,30.50,16,7,16,0.00
2013-6-12,57.4,46.8,40.5,55.9,44.4,40.0,99,92,71,30.52,30.45,11,4,11,0.01
2013-6-13,55.6,49.4,46.9,46.9,44.7,42.1,95,84,66,30.54,30.36,15,6,15,0.00
2013-6-14,52.5,48.3,44.8,49.7,45.3,43.5,99,89,77,30.63,30.54,16,6,16,0.01
2013-6-15,52.9,49.2,45.7,47.9,45.5,43.7,98,87,81,30.60,30.42,17,7,17,0.08
2013-6-16,52.5,46.1,44.8,52.0,45.4,44.0,99,97,97,30.42,30.10,15,7,15,0.99
2013-6-17,52.7,50.5,46.8,52.0,50.0,46.5,99,98,96,30.09,29.88,27,10,27,1.15
2013-6-18,53.8,47.6,40.1,46.0,43.8,39.8,99,87,69,30.01,29.86,21,6,21,0.00
2013-6-19,47.7,44.9,42.8,46.7,44.0,42.3,98,97,92,29.85,29.60,15,5,15,0.25
2013-6-20,43.3,39.9,36.3,42.4,36.7,30.5,99,89,64,29.98,29.56,38,14,38,0.60
2013-6-21,42.4,37.6,32.2,38.6,33.6,29.9,93,86,65,30.35,29.98,42,15,42,0.38
2013-6-22,39.2,36.8,34.9,37.7,34.8,32.5,95,92,90,30.56,30.35,23,13,23,0.45
2013-6-23,53.2,39.8,28.9,38.0,32.4,26.7,94,76,54,30.56,30.44,15,3,15,0.01
2013-6-24,57.0,41.4,29.3,40.0,32.0,25.9,92,72,38,30.62,30.46,8,3,8,0.00
2013-6-25,54.7,40.7,30.2,35.9,31.1,26.2,92,71,42,30.64,30.57,11,4,11,0.00
2013-6-26,54.5,42.7,32.5,41.3,33.5,25.0,86,70,50,30.74,30.58,20,5,20,0.00
2013-6-27,48.6,41.3,34.2,41.9,35.3,28.8,91,79,63,30.71,30.65,21,7,21,0.01
2013-6-28,52.9,43.3,35.4,40.3,37.3,30.7,93,80,56,30.72,30.66,17,7,17,0.05
2013-6-29,52.7,39.0,27.9,38.0,32.6,23.2,91,78,50,30.72,30.59,9,2,9,0.01
2013-6-30,59.4,41.5,28.6,41.7,34.2,26.3,92,77,46,30.59,29.93,6,1,6,0.00
2013-7-1,63.7,43.1,29.1,41.1,34.3,26.3,90,74,38,29.93,29.83,6,2,6,0.01
2013-7-2,70.0,57.1,43.5,43.6,38.2,34.7,81,51,33,29.88,29.73,24,6,24,0.00
2013-7-3,68.5,56.4,45.1,43.9,40.5,36.5,85,58,34,29.87,29.58,30,10,30,0.00
2013-7-4,53.6,48.7,45.7,46.2,43.4,40.8,91,82,70,29.99,29.81,18,7,18,0.00
2013-7-5,66.2,54.5,43.7,44.5,38.5,31.6,91,57,34,29.79,29.48,26,8,26,0.00
2013-7-6,63.9,56.0,46.9,45.0,37.7,31.2,78,52,31,29.52,29.24,46,11,46,0.00
2013-7-7,59.0,52.1,43.9,42.0,34.8,25.2,75,53,35,29.63,29.40,30,11,30,0.00
2013-7-8,57.7,44.4,34.0,38.3,31.7,25.4,82,61,44,29.91,29.65,13,4,13,0.00
2013-7-9,52.5,42.3,33.3,38.9,34.9,29.1,89,76,52,30.03,29.75,21,5,21,0.09
2013-7-10,49.8,41.3,38.1,38.7,35.8,33.3,92,81,55,30.48,30.04,18,7,18,0.15
2013-7-11,54.9,40.5,33.3,36.3,31.8,26.8,88,72,43,30.47,30.40,10,3,10,0.01
2013-7-12,52.7,40.1,33.4,38.5,30.7,24.5,90,69,46,30.42,30.17,10,3,10,0.00
2013-7-13,54.7,43.8,39.2,44.9,40.1,36.0,94,87,68,30.16,29.71,21,8,21,0.12
2013-7-14,47.7,41.9,36.3,41.7,33.9,27.2,93,74,52,29.95,29.63,37,14,37,0.20
2013-7-15,47.8,42.4,36.3,40.0,36.2,31.1,88,79,66,30.19,29.89,26,10,26,0.30
2013-7-16,50.7,41.0,32.2,38.5,34.3,27.9,86,77,59,30.23,30.15,8,3,8,0.00
2013-7-17,66.6,46.3,34.0,43.2,36.2,29.7,90,71,31,30.19,30.10,7,2,7,0.00
2013-7-18,61.5,49.2,38.5,45.7,41.8,35.0,89,77,52,30.18,30.03,13,3,13,0.01
2013-7-19,55.4,48.9,41.4,45.2,43.0,39.0,94,80,67,30.20,30.11,15,4,15,0.00
2013-7-20,50.9,49.2,45.7,45.3,44.0,43.1,91,82,76,30.18,30.02,14,4,14,0.00
2013-7-21,67.5,48.4,39.6,47.1,42.3,37.9,98,82,44,30.04,29.94,8,2,8,0.01
2013-7-22,59.2,49.5,39.9,46.0,41.3,36.7,92,74,56,30.03,29.84,9,3,9,0.00
2013-7-23,57.7,54.9,53.1,43.9,42.6,41.5,71,63,58,29.84,29.80,6,3,6,0.00
2013-7-24,63.0,47.0,36.0,46.7,39.6,33.6,96,78,43,29.64,29.44,7,2,7,0.01
2013-7-25,57.0,46.0,34.2,44.7,36.6,28.3,90,70,46,29.63,29.40,8,3,8,0.00
2013-7-26,65.1,47.2,32.4,40.3,33.5,25.6,84,62,29,29.99,29.64,6,2,6,0.00
2013-7-27,64.6,47.2,36.7,41.0,37.4,33.2,92,72,35,30.16,29.99,8,2,8,0.00
2013-7-28,67.5,47.5,34.2,43.2,36.9,29.8,95,71,28,30.28,30.14,8,3,8,0.00
2013-7-29,59.5,47.8,36.1,41.3,38.9,32.5,95,72,41,30.34,30.25,9,4,9,0.00
2013-7-30,54.5,48.9,44.2,45.9,43.5,41.2,92,82,70,30.30,30.18,14,6,14,0.00
2013-7-31,48.9,43.4,39.6,45.0,40.0,36.1,98,88,65,30.23,30.08,10,3,10,0.00
2013-8-1,54.7,43.2,34.9,43.0,38.1,30.3,94,83,56,30.29,30.19,12,5,12,0.00
2013-8-2,52.5,46.2,42.8,44.0,41.9,40.1,92,85,67,30.27,30.04,10,4,10,0.01
2013-8-3,53.2,49.5,45.1,47.2,45.8,43.0,95,87,79,30.04,29.79,23,11,23,0.08
2013-8-4,52.2,50.2,48.9,47.0,46.1,45.1,90,86,78,29.80,29.72,21,9,21,0.00
2013-8-5,55.2,49.9,48.7,48.8,46.9,44.1,94,89,76,29.80,29.62,15,6,15,0.01
2013-8-6,63.1,52.6,45.9,44.3,40.2,36.7,88,65,39,29.78,29.58,14,4,14,0.00
2013-8-7,60.8,52.1,42.3,43.9,40.2,36.5,84,65,48,29.78,29.52,21,6,21,0.00
2013-8-8,58.1,48.9,39.4,42.5,38.8,33.6,85,69,50,29.85,29.65,9,3,9,0.00
2013-8-9,54.5,46.5,40.8,42.8,39.3,34.7,87,76,62,29.94,29.85,19,6,19,0.00
2013-8-10,48.6,45.3,39.2,45.2,42.0,36.2,91,88,85,29.87,29.50,14,5,14,0.00
2013-8-11,51.8,49.6,47.1,48.8,47.2,44.9,94,91,86,29.48,29.19,21,9,21,0.15
2013-8-12,49.1,48.3,46.2,46.7,46.0,44.0,93,91,91,29.40,29.27,9,3,9,0.07
2013-8-13,53.1,48.6,39.7,46.6,43.7,37.1,92,83,67,29.94,29.40,25,8,25,0.07
2013-8-14,62.1,52.1,43.2,41.5,32.5,21.7,78,51,22,29.99,29.50,24,6,24,0.01
2013-8-15,69.4,53.9,40.3,44.5,38.6,34.0,82,58,33,30.15,29.99,14,3,14,0.00
2013-8-16,60.3,51.7,45.9,47.6,43.7,37.4,87,75,56,30.27,30.10,14,4,14,0.00
2013-8-17,51.4,49.9,48.0,49.1,47.4,44.7,96,91,86,30.38,30.26,19,8,19,0.22
2013-8-18,50.4,49.9,48.9,49.0,48.1,46.9,97,94,89,30.46,30.35,24,10,24,0.14
2013-8-19,55.8,51.0,49.1,48.0,46.2,44.3,95,84,73,30.48,30.42,24,12,24,0.00
2013-8-20,53.8,50.8,48.4,45.7,44.6,42.9,87,79,71,30.44,30.27,28,16,28,0.00
2013-8-21,55.4,51.0,48.7,47.6,45.6,44.5,89,82,72,30.27,30.10,33,16,33,0.00
2013-8-22,61.9,53.8,46.9,47.8,44.8,37.3,85,72,53,30.09,30.00,32,10,32,0.00
2013-8-23,66.9,53.6,41.9,44.5,39.4,32.8,94,61,30,30.21,30.04,15,4,15,0.00
2013-8-24,58.3,47.5,34.2,46.6,39.2,32.6,99,75,48,30.19,30.02,12,4,12,0.00
2013-8-25,57.6,49.7,44.1,44.4,41.7,35.6,91,75,55,30.11,29.99,12,4,12,0.00
2013-8-26,62.8,51.6,43.9,47.2,42.7,38.4,88,72,54,30.27,29.98,21,6,21,0.00
2013-8-27,59.7,51.8,45.1,45.2,40.7,32.1,88,67,37,30.26,30.18,10,4,10,0.00
2013-8-28,56.5,47.6,35.4,43.9,37.8,31.0,91,70,48,30.22,29.91,27,4,27,0.01
2013-8-29,56.7,46.3,37.8,38.7,33.0,27.7,89,63,36,30.54,30.19,18,6,18,0.05
2013-8-30,57.6,47.9,41.9,41.9,36.5,34.0,87,65,46,30.82,30.55,18,6,18,0.00
2013-8-31,52.7,45.0,32.7,40.3,37.1,29.3,93,74,58,30.88,30.77,19,8,19,0.00
2013-9-1,54.0,48.7,42.6,41.4,39.6,37.5,83,71,61,30.96,30.86,15,7,17,0.00
2013-9-2,53.6,46.4,33.3,42.7,39.1,29.5,90,76,61,30.94,30.77,15,6,15,0.00
2013-9-3,63.1,51.3,44.1,45.7,41.2,33.1,85,70,34,30.75,30.44,21,6,21,0.00
2013-9-4,51.1,45.4,40.6,41.6,37.6,29.2,88,74,55,30.58,30.10,35,12,35,0.13
2013-9-5,53.2,44.6,37.0,39.1,34.5,29.5,88,69,42,30.64,30.56,23,9,23,0.06
2013-9-6,61.9,48.9,35.4,43.6,37.8,29.7,85,67,42,30.54,30.25,10,3,10,0.00
2013-9-7,66.2,52.3,37.0,45.6,38.6,32.2,88,61,34,30.27,30.00,55,4,55,0.00
2013-9-8,56.5,51.2,43.2,44.4,39.8,33.6,88,66,46,30.15,29.97,17,7,17,0.00
2013-9-9,60.3,49.1,40.5,41.6,36.8,31.1,84,63,49,30.12,29.92,18,6,18,0.00
2013-9-10,70.9,55.2,38.1,43.9,36.2,29.7,85,52,32,30.11,29.52,46,10,46,0.00
2013-9-11,72.1,61.2,53.2,53.9,47.5,35.5,81,61,42,29.80,29.61,35,10,35,0.09
2013-9-12,63.7,53.4,43.5,41.9,36.3,25.1,85,55,24,30.11,29.70,32,10,32,0.00
2013-9-13,60.3,49.0,37.6,39.1,33.6,26.5,77,57,29,30.07,29.94,17,4,17,0.00
2013-9-14,59.2,48.3,38.1,41.6,36.9,28.3,81,65,46,30.04,29.87,14,5,14,0.00
2013-9-15,52.7,45.7,41.7,36.1,30.2,25.4,75,55,37,30.38,30.09,27,10,27,0.01
2013-9-16,61.3,45.5,34.7,42.0,34.9,26.6,80,67,35,30.32,29.90,16,4,16,0.00
2013-9-17,52.9,46.0,38.5,38.7,34.6,29.5,87,65,42,30.39,30.09,26,7,26,0.00
2013-9-18,55.2,46.0,32.9,42.5,37.0,28.3,90,72,54,30.36,30.20,15,5,15,0.00
2013-9-19,62.2,49.8,41.4,45.9,41.4,34.5,88,74,38,30.22,29.87,12,6,12,0.02
2013-9-20,57.7,50.8,46.0,48.1,44.1,40.9,84,78,65,29.83,29.70,11,5,11,0.00
2013-9-21,59.7,55.0,49.6,49.9,46.2,42.1,88,73,54,29.80,29.69,13,3,13,0.14
2013-9-22,52.5,50.5,47.1,48.1,46.7,44.6,92,87,81,29.80,29.65,20,6,20,0.18
2013-9-23,64.4,52.4,47.1,50.4,46.5,44.6,92,81,56,30.20,29.73,13,5,13,0.00
2013-9-24,54.7,50.1,47.3,46.4,43.7,39.6,88,79,70,30.30,30.20,19,6,19,0.01
2013-9-25,50.9,47.6,45.1,44.6,42.3,39.2,90,82,75,30.19,29.75,21,8,21,0.06
2013-9-26,67.1,52.8,45.9,48.0,44.3,38.9,92,75,38,29.84,29.59,23,10,23,0.02
2013-9-27,59.2,50.9,40.8,49.4,44.2,38.0,91,78,65,29.84,29.38,21,7,21,0.00
2013-9-28,63.7,52.6,44.4,45.7,42.7,37.7,85,70,47,29.58,29.26,22,7,22,0.01
2013-9-29,58.5,48.8,45.0,44.9,41.5,38.9,88,76,52,29.72,29.59,16,6,16,0.01
2013-9-30,59.9,50.7,47.3,44.7,42.0,40.1,81,72,54,29.99,29.71,14,5,14,0.00
2013-10-1,62.1,53.2,46.6,47.0,44.2,41.4,85,72,51,30.01,29.93,17,7,17,0.00
2013-10-2,71.1,60.3,52.0,47.2,42.5,36.1,82,55,29,30.05,29.80,21,6,21,0.00
2013-10-3,59.4,54.3,50.0,50.4,46.7,43.8,87,76,65,30.07,29.81,13,5,13,0.01
2013-10-4,70.5,57.8,49.5,52.1,47.4,43.9,85,69,50,30.04,29.83,18,4,18,0.00
2013-10-5,63.7,52.5,48.7,49.6,47.3,44.7,91,83,59,30.04,29.83,14,4,14,0.00
2013-10-6,70.7,58.4,48.4,57.3,49.2,41.5,94,74,42,29.83,29.56,10,4,10,0.00
2013-10-7,64.8,55.4,45.1,46.8,40.6,34.9,81,59,36,29.75,29.49,21,6,21,0.06
2013-10-8,45.1,41.9,37.2,40.1,37.8,33.5,93,86,81,29.75,29.67,17,6,17,0.69
2013-10-9,50.9,43.7,37.9,39.9,36.7,33.2,94,77,54,29.82,29.65,23,8,23,0.08
2013-10-10,58.1,47.1,31.8,44.4,36.1,28.3,88,67,41,29.79,29.32,17,5,17,0.00
2013-10-11,55.0,49.4,43.3,44.3,41.4,38.4,85,74,61,29.45,29.22,17,6,17,0.00
2013-10-12,63.0,49.7,44.2,44.3,40.9,37.6,87,73,42,29.67,29.25,32,6,32,0.15
2013-10-13,73.8,54.6,36.5,48.6,41.4,33.0,92,65,31,29.76,29.59,24,7,24,0.00
2013-10-14,71.1,61.2,47.8,53.6,45.3,35.1,76,57,34,29.58,29.00,36,11,36,0.04
2013-10-15,63.0,50.4,40.6,42.7,37.5,29.1,87,64,34,29.70,29.38,34,7,34,0.02
2013-10-16,56.1,47.6,34.2,44.5,38.3,30.4,90,71,53,29.87,29.70,20,6,20,0.01
2013-10-17,76.3,59.1,41.7,50.7,42.4,36.9,84,57,29,29.99,29.87,17,4,17,0.00
2013-10-18,79.5,64.4,50.9,48.9,42.3,36.5,76,45,30,30.22,29.76,36,13,36,0.00
2013-10-19,60.4,55.1,49.3,48.9,44.5,41.2,77,68,57,30.29,30.16,19,8,19,0.00
2013-10-20,76.5,58.9,44.8,52.1,42.5,38.6,83,57,27,30.23,30.05,13,5,13,0.00
2013-10-21,74.8,60.7,48.2,47.0,40.9,29.9,83,52,21,30.06,29.76,34,8,34,0.00
2013-10-22,67.1,56.3,49.6,47.6,43.9,40.6,81,65,42,30.04,29.67,23,6,23,0.00
2013-10-23,57.9,52.9,49.5,46.7,43.3,41.1,82,70,58,30.16,29.95,25,10,25,0.01
2013-10-24,83.1,66.3,51.8,52.8,46.6,38.4,84,53,25,29.94,29.40,30,12,30,0.02
2013-10-25,72.5,63.5,51.1,53.9,40.8,24.9,74,45,24,29.73,29.32,33,11,33,0.02
2013-10-26,69.8,58.5,46.9,43.6,38.9,33.4,65,49,28,29.94,29.57,37,12,37,0.00
2013-10-27,63.9,55.7,45.1,40.5,30.5,21.3,61,40,21,30.11,29.91,36,12,36,0.00
2013-10-28,55.0,49.4,44.2,39.4,34.7,30.4,70,57,42,30.45,30.11,21,9,21,0.00
2013-10-29,60.6,52.6,39.4,47.7,42.6,34.4,86,69,54,30.44,30.27,19,7,19,0.00
2013-10-30,69.3,54.6,45.1,49.2,44.1,33.4,87,69,34,30.30,30.11,20,7,20,0.04
2013-10-31,72.0,58.3,51.4,51.8,47.9,43.0,86,70,42,30.11,29.87,16,5,16,0.04
2013-11-1,57.4,50.4,43.9,43.0,39.9,35.8,85,68,53,30.25,30.04,17,6,17,0.14
2013-11-2,60.4,51.6,39.2,47.9,41.6,36.0,92,70,49,30.29,30.19,16,5,16,0.00
2013-11-3,60.1,54.3,48.4,49.0,43.8,38.1,81,68,55,30.45,30.29,24,9,24,0.00
2013-11-4,70.0,60.3,52.3,52.1,48.9,44.7,84,67,46,30.32,30.21,15,6,15,0.00
2013-11-5,80.1,62.9,48.9,52.3,44.8,37.8,82,56,23,30.49,30.24,20,6,20,0.00
2013-11-6,61.5,55.4,50.5,48.0,45.9,43.9,82,71,59,30.58,30.48,27,11,27,0.00
2013-11-7,64.2,55.8,48.9,51.7,47.4,43.7,88,74,53,30.53,30.35,19,6,19,0.00
2013-11-8,67.8,57.1,52.3,53.3,50.7,45.4,91,80,59,30.38,30.25,21,8,21,0.01
2013-11-9,60.8,54.9,51.4,48.4,46.3,44.8,83,73,63,30.43,30.32,20,8,20,0.00
2013-11-10,61.5,59.0,53.6,51.9,50.1,46.6,83,73,68,30.32,30.15,19,9,19,0.00
2013-11-11,61.5,60.1,50.9,51.4,49.8,42.7,77,69,68,30.16,29.29,9,9,9,0.00
2013-11-12,59.2,53.4,50.0,44.9,42.5,40.0,78,67,55,30.11,29.99,15,5,15,0.00
2013-11-13,59.0,52.9,45.5,43.1,41.3,38.4,80,65,54,30.11,29.91,21,8,21,0.00
2013-11-14,60.1,54.7,50.4,44.7,42.7,40.1,72,64,55,29.94,29.72,23,10,23,0.00
2013-11-15,60.6,56.0,53.6,49.2,46.7,43.7,81,71,64,29.73,29.39,21,10,21,0.00
2013-11-16,84.4,65.7,50.5,53.4,47.7,37.5,86,58,21,29.57,29.31,22,6,22,0.00
2013-11-17,62.1,58.0,52.5,50.1,47.6,45.0,78,68,63,29.64,29.57,14,8,14,0.00
2013-11-18,59.5,59.5,59.5,48.2,48.2,48.2,66,66,66,29.64,29.64,11,11,14,0.00
2013-11-19,59.5,59.5,59.5,48.2,48.2,48.2,66,66,66,29.64,29.64,11,11,14,0.00
2013-11-20,59.5,59.5,59.5,48.2,48.2,48.2,66,66,66,29.64,29.64,11,11,14,0.00
2013-11-21,59.5,59.5,59.5,48.2,48.2,48.2,66,66,66,29.64,29.64,11,11,14,0.00
2013-11-22,59.7,58.7,55.6,48.7,48.0,46.5,77,68,66,29.97,29.64,17,11,17,0.09
2013-11-23,65.7,59.3,55.2,54.3,51.2,48.5,82,75,63,29.97,29.78,17,8,17,0.00
2013-11-24,70.5,60.7,55.9,55.5,52.1,50.2,83,74,58,29.78,29.36,14,5,14,0.00
2013-11-25,62.6,56.3,50.0,52.6,48.7,44.1,85,76,54,29.54,29.36,13,4,13,0.26
2013-11-26,55.6,51.0,48.0,46.6,45.0,43.3,87,80,67,29.81,29.54,8,3,8,0.09
2013-11-27,57.2,52.7,48.6,50.2,46.4,42.9,85,79,73,29.86,29.76,21,8,21,0.13
2013-11-28,62.2,57.2,54.1,51.2,47.9,45.3,78,71,63,29.76,29.33,20,8,20,0.00
2013-11-29,71.1,59.8,45.1,52.0,46.6,40.0,84,63,39,29.34,29.00,26,6,26,0.00
2013-11-30,72.7,63.6,50.0,47.6,40.2,22.6,67,45,16,29.45,28.97,35,10,35,0.00
2013-12-1,70.2,57.3,45.5,46.2,39.2,28.8,80,54,23,29.95,29.42,26,7,26,0.00
2013-12-2,68.2,58.8,51.8,50.4,46.3,40.7,76,64,50,30.02,29.90,15,7,15,0.00
2013-12-3,68.4,61.0,55.0,53.6,50.5,47.6,78,69,57,30.02,29.80,19,7,19,0.00
2013-12-4,70.3,59.9,54.3,53.7,50.9,48.6,84,73,52,29.83,29.62,17,7,18,0.00
2013-12-5,73.8,61.1,53.8,56.4,52.7,48.4,86,74,53,29.62,29.47,17,6,17,0.00
2013-12-6,75.6,66.4,56.8,60.3,54.7,46.8,89,68,39,29.47,29.26,18,5,18,0.00
2013-12-7,79.2,72.0,63.7,50.7,42.7,36.4,58,36,23,29.27,29.18,27,10,27,0.00
2013-12-8,75.9,64.0,55.8,52.4,48.8,43.3,81,60,34,29.44,29.22,24,6,24,0.08
2013-12-9,70.5,59.7,52.7,50.9,48.5,45.8,81,68,44,29.69,29.44,17,8,17,0.02
2013-12-10,64.2,59.1,56.1,54.2,51.4,49.8,84,76,65,29.72,29.64,15,5,15,0.11
2013-12-11,70.5,62.2,58.1,54.6,51.9,47.8,79,69,54,29.67,29.56,18,5,18,0.00
2013-12-12,70.9,63.7,58.1,56.6,52.9,47.4,79,68,53,29.61,29.43,17,6,17,0.00
2013-12-13,71.2,63.1,55.4,56.2,51.9,48.0,77,67,54,29.78,29.50,20,8,20,0.00
2013-12-14,67.6,61.9,54.5,54.3,51.4,47.3,77,69,61,29.79,29.70,17,5,17,0.00
2013-12-15,73.8,63.2,54.9,57.6,52.8,47.8,81,69,55,29.80,29.67,17,7,17,0.00
2013-12-16,77.7,64.4,58.5,56.2,52.4,46.9,79,66,39,29.67,29.55,17,5,17,0.00
2013-12-17,63.7,56.4,51.8,52.1,47.7,44.2,84,73,53,29.80,29.59,16,4,16,0.33
2013-12-18,68.0,59.9,51.8,52.5,47.6,44.1,77,64,49,29.78,29.50,22,7,22,0.01
2013-12-19,63.0,55.8,50.5,46.6,42.2,37.5,78,61,43,29.89,29.62,29,9,29,0.15
2013-12-20,66.7,58.2,44.1,53.3,46.7,38.0,81,66,56,29.89,29.52,18,6,18,0.00
2013-12-21,79.7,61.5,50.4,53.3,45.9,27.4,76,59,18,29.59,29.33,21,6,21,0.00
2013-12-22,63.5,54.7,46.6,46.4,41.4,38.2,85,62,42,29.83,29.59,17,6,17,0.01
2013-12-23,68.0,59.6,53.1,49.2,45.1,41.0,71,59,44,29.82,29.65,17,7,17,0.00
2013-12-24,76.5,65.0,57.6,54.7,50.3,41.7,79,61,36,29.67,29.11,24,9,24,0.01
2013-12-25,80.1,64.5,55.4,54.3,48.9,42.7,86,60,28,29.51,29.17,18,5,18,0.27
2013-12-26,66.4,58.2,53.2,53.9,51.2,48.6,86,78,63,29.77,29.50,22,10,22,0.06
2013-12-27,63.9,58.1,55.2,53.4,50.9,46.3,86,77,61,29.82,29.75,14,4,14,0.22
2013-12-28,64.8,59.3,55.4,57.4,54.0,51.0,86,83,76,29.78,29.65,15,7,15,0.28
2013-12-29,64.2,61.4,60.1,57.9,56.2,55.2,85,83,78,29.66,29.41,19,9,19,0.15
2013-12-30,72.7,62.9,56.3,58.0,53.1,39.4,85,72,37,29.41,29.11,17,5,17,0.12
2013-12-31,73.8,62.8,52.9,52.4,41.9,31.4,63,47,22,29.53,29.24,19,6,19,0.00
2014-1-1,75.6,60.7,50.2,49.7,42.3,35.1,69,52,26,29.53,29.33,30,8,30,0.00
2014-1-2,73.8,63.2,52.7,49.4,43.5,38.6,63,50,34,29.44,29.20,28,8,28,0.00